sensor_id;sensor_type;location;lat;lon;timestamp;P1;durP1;ratioP1;P2;durP2;ratioP2
26038;SDS011;13815;52.374;4.882;2023-09-12T00:02:02;0.00;;;0.00;;
26038;SDS011;13815;52.374;4.882;2023-09-12T00:04:27;0.00;;;0.00;;
26038;SDS011;13815;52.374;4.882;2023-09-12T00:06:53;0.00;;;0.00;;
26038;SDS011;13815;52.374;4.882;2023-09-12T00:09:18;0.00;;;0.00;;
26038;SDS011;13815;52.374;4.882;2023-09-12T00:11:44;0.00;;;0.00;;
26038;SDS011;13815;52.374;4.882;2023-09-12T00:14:10;0.00;;;0.00;;
26038;SDS011;13815;52.374;4.882;2023-09-12T00:16:40;0.00;;;0.00;;
26038;SDS011;13815;52.374;4.882;2023-09-12T00:19:06;0.00;;;0.00;;
26038;SDS011;13815;52.374;4.882;2023-09-12T00:21:31;0.00;;;0.00;;
26038;SDS011;13815;52.374;4.882;2023-09-12T00:23:57;0.00;;;0.00;;
26038;SDS011;13815;52.374;4.882;2023-09-12T00:26:22;0.00;;;0.00;;
26038;SDS011;13815;52.374;4.882;2023-09-12T00:28:47;0.00;;;0.00;;
26038;SDS011;13815;52.374;4.882;2023-09-12T00:31:13;0.00;;;0.00;;
26038;SDS011;13815;52.374;4.882;2023-09-12T00:33:38;0.00;;;0.00;;
26038;SDS011;13815;52.374;4.882;2023-09-12T00:36:04;0.00;;;0.00;;
26038;SDS011;13815;52.374;4.882;2023-09-12T00:38:29;0.00;;;0.00;;
26038;SDS011;13815;52.374;4.882;2023-09-12T00:40:55;0.00;;;0.00;;
26038;SDS011;13815;52.374;4.882;2023-09-12T00:43:23;0.00;;;0.00;;
26038;SDS011;13815;52.374;4.882;2023-09-12T00:45:51;0.00;;;0.00;;
26038;SDS011;13815;52.374;4.882;2023-09-12T00:48:17;0.00;;;0.00;;
26038;SDS011;13815;52.374;4.882;2023-09-12T00:50:46;0.00;;;0.00;;
26038;SDS011;13815;52.374;4.882;2023-09-12T00:53:12;0.00;;;0.00;;
26038;SDS011;13815;52.374;4.882;2023-09-12T00:55:40;0.00;;;0.00;;
26038;SDS011;13815;52.374;4.882;2023-09-12T00:58:16;0.00;;;0.00;;
26038;SDS011;13815;52.374;4.882;2023-09-12T01:00:42;0.00;;;0.00;;
26038;SDS011;13815;52.374;4.882;2023-09-12T01:03:08;0.00;;;0.00;;
26038;SDS011;13815;52.374;4.882;2023-09-12T01:05:33;0.00;;;0.00;;
26038;SDS011;13815;52.374;4.882;2023-09-12T01:07:59;0.00;;;0.00;;
26038;SDS011;13815;52.374;4.882;2023-09-12T01:10:25;0.00;;;0.00;;
26038;SDS011;13815;52.374;4.882;2023-09-12T01:12:50;0.00;;;0.00;;
26038;SDS011;13815;52.374;4.882;2023-09-12T01:15:16;0.00;;;0.00;;
26038;SDS011;13815;52.374;4.882;2023-09-12T01:17:45;0.00;;;0.00;;
26038;SDS011;13815;52.374;4.882;2023-09-12T01:20:14;0.00;;;0.00;;
26038;SDS011;13815;52.374;4.882;2023-09-12T01:28:26;0.00;;;0.00;;
26038;SDS011;13815;52.374;4.882;2023-09-12T01:30:56;0.00;;;0.00;;
26038;SDS011;13815;52.374;4.882;2023-09-12T01:33:23;0.00;;;0.00;;
26038;SDS011;13815;52.374;4.882;2023-09-12T01:35:51;0.00;;;0.00;;
26038;SDS011;13815;52.374;4.882;2023-09-12T01:38:17;0.00;;;0.00;;
26038;SDS011;13815;52.374;4.882;2023-09-12T01:40:44;0.00;;;0.00;;
26038;SDS011;13815;52.374;4.882;2023-09-12T01:43:12;0.00;;;0.00;;
26038;SDS011;13815;52.374;4.882;2023-09-12T01:45:41;0.00;;;0.00;;
26038;SDS011;13815;52.374;4.882;2023-09-12T01:48:07;0.00;;;0.00;;
26038;SDS011;13815;52.374;4.882;2023-09-12T01:50:33;0.00;;;0.00;;
26038;SDS011;13815;52.374;4.882;2023-09-12T01:52:59;0.00;;;0.00;;
26038;SDS011;13815;52.374;4.882;2023-09-12T01:55:25;0.00;;;0.00;;
26038;SDS011;13815;52.374;4.882;2023-09-12T01:57:51;0.00;;;0.00;;
26038;SDS011;13815;52.374;4.882;2023-09-12T02:00:20;0.00;;;0.00;;
26038;SDS011;13815;52.374;4.882;2023-09-12T02:02:47;0.00;;;0.00;;
26038;SDS011;13815;52.374;4.882;2023-09-12T02:05:17;0.00;;;0.00;;
26038;SDS011;13815;52.374;4.882;2023-09-12T02:07:44;0.00;;;0.00;;
26038;SDS011;13815;52.374;4.882;2023-09-12T02:10:11;0.00;;;0.00;;
26038;SDS011;13815;52.374;4.882;2023-09-12T02:12:36;0.00;;;0.00;;
26038;SDS011;13815;52.374;4.882;2023-09-12T02:15:02;0.00;;;0.00;;
26038;SDS011;13815;52.374;4.882;2023-09-12T02:17:28;0.00;;;0.00;;
26038;SDS011;13815;52.374;4.882;2023-09-12T02:19:53;0.00;;;0.00;;
26038;SDS011;13815;52.374;4.882;2023-09-12T02:22:19;0.00;;;0.00;;
26038;SDS011;13815;52.374;4.882;2023-09-12T02:24:44;0.00;;;0.00;;
26038;SDS011;13815;52.374;4.882;2023-09-12T02:27:09;0.00;;;0.00;;
26038;SDS011;13815;52.374;4.882;2023-09-12T02:29:41;0.00;;;0.00;;
26038;SDS011;13815;52.374;4.882;2023-09-12T02:32:07;0.00;;;0.00;;
26038;SDS011;13815;52.374;4.882;2023-09-12T02:34:33;0.00;;;0.00;;
26038;SDS011;13815;52.374;4.882;2023-09-12T02:36:58;0.00;;;0.00;;
26038;SDS011;13815;52.374;4.882;2023-09-12T02:39:24;0.00;;;0.00;;
26038;SDS011;13815;52.374;4.882;2023-09-12T02:41:49;0.00;;;0.00;;
26038;SDS011;13815;52.374;4.882;2023-09-12T02:44:18;0.00;;;0.00;;
26038;SDS011;13815;52.374;4.882;2023-09-12T02:46:46;0.00;;;0.00;;
26038;SDS011;13815;52.374;4.882;2023-09-12T02:49:11;0.00;;;0.00;;
26038;SDS011;13815;52.374;4.882;2023-09-12T02:51:40;0.00;;;0.00;;
26038;SDS011;13815;52.374;4.882;2023-09-12T02:54:06;0.00;;;0.00;;
26038;SDS011;13815;52.374;4.882;2023-09-12T02:56:31;0.00;;;0.00;;
26038;SDS011;13815;52.374;4.882;2023-09-12T02:58:57;0.00;;;0.00;;
26038;SDS011;13815;52.374;4.882;2023-09-12T03:01:22;0.00;;;0.00;;
26038;SDS011;13815;52.374;4.882;2023-09-12T03:03:51;0.00;;;0.00;;
26038;SDS011;13815;52.374;4.882;2023-09-12T03:06:16;0.00;;;0.00;;
26038;SDS011;13815;52.374;4.882;2023-09-12T03:08:45;0.00;;;0.00;;
26038;SDS011;13815;52.374;4.882;2023-09-12T03:11:11;0.00;;;0.00;;
26038;SDS011;13815;52.374;4.882;2023-09-12T03:13:40;0.00;;;0.00;;
26038;SDS011;13815;52.374;4.882;2023-09-12T03:16:12;0.00;;;0.00;;
26038;SDS011;13815;52.374;4.882;2023-09-12T03:18:38;0.00;;;0.00;;
26038;SDS011;13815;52.374;4.882;2023-09-12T03:21:03;0.00;;;0.00;;
26038;SDS011;13815;52.374;4.882;2023-09-12T03:23:29;0.00;;;0.00;;
26038;SDS011;13815;52.374;4.882;2023-09-12T03:25:54;0.00;;;0.00;;
26038;SDS011;13815;52.374;4.882;2023-09-12T03:28:20;0.00;;;0.00;;
26038;SDS011;13815;52.374;4.882;2023-09-12T03:30:45;0.00;;;0.00;;
26038;SDS011;13815;52.374;4.882;2023-09-12T03:33:11;0.00;;;0.00;;
26038;SDS011;13815;52.374;4.882;2023-09-12T03:35:36;0.00;;;0.00;;
26038;SDS011;13815;52.374;4.882;2023-09-12T03:38:04;0.00;;;0.00;;
26038;SDS011;13815;52.374;4.882;2023-09-12T03:40:30;0.00;;;0.00;;
26038;SDS011;13815;52.374;4.882;2023-09-12T03:42:55;0.00;;;0.00;;
26038;SDS011;13815;52.374;4.882;2023-09-12T03:45:21;0.00;;;0.00;;
26038;SDS011;13815;52.374;4.882;2023-09-12T03:47:50;0.00;;;0.00;;
26038;SDS011;13815;52.374;4.882;2023-09-12T03:50:16;0.00;;;0.00;;
26038;SDS011;13815;52.374;4.882;2023-09-12T03:52:41;0.00;;;0.00;;
26038;SDS011;13815;52.374;4.882;2023-09-12T03:55:07;0.00;;;0.00;;
26038;SDS011;13815;52.374;4.882;2023-09-12T03:57:33;0.00;;;0.00;;
26038;SDS011;13815;52.374;4.882;2023-09-12T03:59:58;0.00;;;0.00;;
26038;SDS011;13815;52.374;4.882;2023-09-12T04:02:24;0.00;;;0.00;;
26038;SDS011;13815;52.374;4.882;2023-09-12T04:04:49;0.00;;;0.00;;
26038;SDS011;13815;52.374;4.882;2023-09-12T04:07:15;0.00;;;0.00;;
26038;SDS011;13815;52.374;4.882;2023-09-12T04:09:40;0.00;;;0.00;;
26038;SDS011;13815;52.374;4.882;2023-09-12T04:12:06;0.00;;;0.00;;
26038;SDS011;13815;52.374;4.882;2023-09-12T04:14:32;0.00;;;0.00;;
26038;SDS011;13815;52.374;4.882;2023-09-12T04:16:57;0.00;;;0.00;;
26038;SDS011;13815;52.374;4.882;2023-09-12T04:19:22;0.00;;;0.00;;
26038;SDS011;13815;52.374;4.882;2023-09-12T04:21:48;0.00;;;0.00;;
26038;SDS011;13815;52.374;4.882;2023-09-12T04:24:13;0.00;;;0.00;;
26038;SDS011;13815;52.374;4.882;2023-09-12T04:26:40;0.00;;;0.00;;
26038;SDS011;13815;52.374;4.882;2023-09-12T04:29:06;0.00;;;0.00;;
26038;SDS011;13815;52.374;4.882;2023-09-12T04:31:31;0.00;;;0.00;;
26038;SDS011;13815;52.374;4.882;2023-09-12T04:33:56;0.00;;;0.00;;
26038;SDS011;13815;52.374;4.882;2023-09-12T04:36:22;0.00;;;0.00;;
26038;SDS011;13815;52.374;4.882;2023-09-12T04:38:50;0.00;;;0.00;;
26038;SDS011;13815;52.374;4.882;2023-09-12T04:41:15;0.00;;;0.00;;
26038;SDS011;13815;52.374;4.882;2023-09-12T04:43:42;0.00;;;0.00;;
26038;SDS011;13815;52.374;4.882;2023-09-12T04:46:09;0.00;;;0.00;;
26038;SDS011;13815;52.374;4.882;2023-09-12T04:48:35;0.00;;;0.00;;
26038;SDS011;13815;52.374;4.882;2023-09-12T04:51:00;0.00;;;0.00;;
26038;SDS011;13815;52.374;4.882;2023-09-12T04:53:26;0.00;;;0.00;;
26038;SDS011;13815;52.374;4.882;2023-09-12T04:55:52;0.00;;;0.00;;
26038;SDS011;13815;52.374;4.882;2023-09-12T04:58:18;0.00;;;0.00;;
26038;SDS011;13815;52.374;4.882;2023-09-12T05:00:43;0.00;;;0.00;;
26038;SDS011;13815;52.374;4.882;2023-09-12T05:03:12;0.00;;;0.00;;
26038;SDS011;13815;52.374;4.882;2023-09-12T05:05:37;0.00;;;0.00;;
26038;SDS011;13815;52.374;4.882;2023-09-12T05:08:03;0.00;;;0.00;;
26038;SDS011;13815;52.374;4.882;2023-09-12T05:10:29;0.00;;;0.00;;
26038;SDS011;13815;52.374;4.882;2023-09-12T05:15:46;0.00;;;0.00;;
26038;SDS011;13815;52.374;4.882;2023-09-12T05:18:14;0.00;;;0.00;;
26038;SDS011;13815;52.374;4.882;2023-09-12T05:20:39;0.00;;;0.00;;
26038;SDS011;13815;52.374;4.882;2023-09-12T05:23:05;0.00;;;0.00;;
26038;SDS011;13815;52.374;4.882;2023-09-12T05:25:30;0.00;;;0.00;;
26038;SDS011;13815;52.374;4.882;2023-09-12T05:27:56;0.00;;;0.00;;
26038;SDS011;13815;52.374;4.882;2023-09-12T05:30:21;0.00;;;0.00;;
26038;SDS011;13815;52.374;4.882;2023-09-12T05:32:50;0.00;;;0.00;;
26038;SDS011;13815;52.374;4.882;2023-09-12T05:35:19;0.00;;;0.00;;
26038;SDS011;13815;52.374;4.882;2023-09-12T05:37:44;0.00;;;0.00;;
26038;SDS011;13815;52.374;4.882;2023-09-12T05:40:10;0.00;;;0.00;;
26038;SDS011;13815;52.374;4.882;2023-09-12T05:42:35;0.00;;;0.00;;
26038;SDS011;13815;52.374;4.882;2023-09-12T05:45:01;0.00;;;0.00;;
26038;SDS011;13815;52.374;4.882;2023-09-12T05:47:27;0.00;;;0.00;;
26038;SDS011;13815;52.374;4.882;2023-09-12T05:49:52;0.00;;;0.00;;
26038;SDS011;13815;52.374;4.882;2023-09-12T05:52:18;0.00;;;0.00;;
26038;SDS011;13815;52.374;4.882;2023-09-12T05:54:44;0.00;;;0.00;;
26038;SDS011;13815;52.374;4.882;2023-09-12T05:57:09;0.00;;;0.00;;
26038;SDS011;13815;52.374;4.882;2023-09-12T05:59:36;0.00;;;0.00;;
26038;SDS011;13815;52.374;4.882;2023-09-12T06:02:02;0.00;;;0.00;;
26038;SDS011;13815;52.374;4.882;2023-09-12T06:04:29;0.00;;;0.00;;
26038;SDS011;13815;52.374;4.882;2023-09-12T06:06:54;0.00;;;0.00;;
26038;SDS011;13815;52.374;4.882;2023-09-12T06:09:20;0.00;;;0.00;;
26038;SDS011;13815;52.374;4.882;2023-09-12T06:11:45;0.00;;;0.00;;
26038;SDS011;13815;52.374;4.882;2023-09-12T06:14:10;0.00;;;0.00;;
26038;SDS011;13815;52.374;4.882;2023-09-12T06:16:36;0.00;;;0.00;;
26038;SDS011;13815;52.374;4.882;2023-09-12T06:19:01;0.00;;;0.00;;
26038;SDS011;13815;52.374;4.882;2023-09-12T06:21:26;0.00;;;0.00;;
26038;SDS011;13815;52.374;4.882;2023-09-12T06:24:07;0.00;;;0.00;;
26038;SDS011;13815;52.374;4.882;2023-09-12T06:26:35;0.00;;;0.00;;
26038;SDS011;13815;52.374;4.882;2023-09-12T06:29:00;0.00;;;0.00;;
26038;SDS011;13815;52.374;4.882;2023-09-12T06:31:25;0.00;;;0.00;;
26038;SDS011;13815;52.374;4.882;2023-09-12T06:34:00;0.00;;;0.00;;
26038;SDS011;13815;52.374;4.882;2023-09-12T06:36:25;0.00;;;0.00;;
26038;SDS011;13815;52.374;4.882;2023-09-12T06:38:52;0.00;;;0.00;;
26038;SDS011;13815;52.374;4.882;2023-09-12T06:41:20;0.00;;;0.00;;
26038;SDS011;13815;52.374;4.882;2023-09-12T06:43:46;0.00;;;0.00;;
26038;SDS011;13815;52.374;4.882;2023-09-12T06:46:12;0.00;;;0.00;;
26038;SDS011;13815;52.374;4.882;2023-09-12T06:48:37;0.00;;;0.00;;
26038;SDS011;13815;52.374;4.882;2023-09-12T06:51:06;0.00;;;0.00;;
26038;SDS011;13815;52.374;4.882;2023-09-12T06:53:34;0.00;;;0.00;;
26038;SDS011;13815;52.374;4.882;2023-09-12T06:56:01;0.00;;;0.00;;
26038;SDS011;13815;52.374;4.882;2023-09-12T06:58:27;0.00;;;0.00;;
26038;SDS011;13815;52.374;4.882;2023-09-12T07:00:53;0.00;;;0.00;;
26038;SDS011;13815;52.374;4.882;2023-09-12T07:03:18;0.00;;;0.00;;
26038;SDS011;13815;52.374;4.882;2023-09-12T07:05:46;0.00;;;0.00;;
26038;SDS011;13815;52.374;4.882;2023-09-12T07:08:12;0.00;;;0.00;;
26038;SDS011;13815;52.374;4.882;2023-09-12T07:10:43;0.00;;;0.00;;
26038;SDS011;13815;52.374;4.882;2023-09-12T07:13:10;0.00;;;0.00;;
26038;SDS011;13815;52.374;4.882;2023-09-12T07:15:35;0.00;;;0.00;;
26038;SDS011;13815;52.374;4.882;2023-09-12T07:18:01;0.00;;;0.00;;
26038;SDS011;13815;52.374;4.882;2023-09-12T07:20:27;0.00;;;0.00;;
26038;SDS011;13815;52.374;4.882;2023-09-12T07:22:52;0.00;;;0.00;;
26038;SDS011;13815;52.374;4.882;2023-09-12T07:25:21;0.00;;;0.00;;
26038;SDS011;13815;52.374;4.882;2023-09-12T07:27:49;0.00;;;0.00;;
26038;SDS011;13815;52.374;4.882;2023-09-12T07:30:18;0.00;;;0.00;;
26038;SDS011;13815;52.374;4.882;2023-09-12T07:32:43;0.00;;;0.00;;
26038;SDS011;13815;52.374;4.882;2023-09-12T07:35:09;0.00;;;0.00;;
26038;SDS011;13815;52.374;4.882;2023-09-12T07:37:35;0.00;;;0.00;;
26038;SDS011;13815;52.374;4.882;2023-09-12T07:40:00;0.00;;;0.00;;
26038;SDS011;13815;52.374;4.882;2023-09-12T07:42:26;0.00;;;0.00;;
26038;SDS011;13815;52.374;4.882;2023-09-12T07:44:51;0.00;;;0.00;;
26038;SDS011;13815;52.374;4.882;2023-09-12T07:47:17;0.00;;;0.00;;
26038;SDS011;13815;52.374;4.882;2023-09-12T07:49:43;0.00;;;0.00;;
26038;SDS011;13815;52.374;4.882;2023-09-12T07:52:08;0.00;;;0.00;;
26038;SDS011;13815;52.374;4.882;2023-09-12T07:54:33;0.00;;;0.00;;
26038;SDS011;13815;52.374;4.882;2023-09-12T07:56:59;0.00;;;0.00;;
26038;SDS011;13815;52.374;4.882;2023-09-12T07:59:24;0.00;;;0.00;;
26038;SDS011;13815;52.374;4.882;2023-09-12T08:01:50;0.00;;;0.00;;
26038;SDS011;13815;52.374;4.882;2023-09-12T08:04:16;0.00;;;0.00;;
26038;SDS011;13815;52.374;4.882;2023-09-12T08:06:41;0.00;;;0.00;;
26038;SDS011;13815;52.374;4.882;2023-09-12T08:09:07;0.00;;;0.00;;
26038;SDS011;13815;52.374;4.882;2023-09-12T08:11:35;0.00;;;0.00;;
26038;SDS011;13815;52.374;4.882;2023-09-12T08:14:01;0.00;;;0.00;;
26038;SDS011;13815;52.374;4.882;2023-09-12T08:16:26;0.00;;;0.00;;
26038;SDS011;13815;52.374;4.882;2023-09-12T08:18:52;0.00;;;0.00;;
26038;SDS011;13815;52.374;4.882;2023-09-12T08:21:17;0.00;;;0.00;;
26038;SDS011;13815;52.374;4.882;2023-09-12T08:23:43;0.00;;;0.00;;
26038;SDS011;13815;52.374;4.882;2023-09-12T08:26:08;0.00;;;0.00;;
26038;SDS011;13815;52.374;4.882;2023-09-12T08:28:34;0.00;;;0.00;;
26038;SDS011;13815;52.374;4.882;2023-09-12T08:30:59;0.00;;;0.00;;
26038;SDS011;13815;52.374;4.882;2023-09-12T08:33:25;0.00;;;0.00;;
26038;SDS011;13815;52.374;4.882;2023-09-12T08:35:50;0.00;;;0.00;;
26038;SDS011;13815;52.374;4.882;2023-09-12T08:38:16;0.00;;;0.00;;
26038;SDS011;13815;52.374;4.882;2023-09-12T08:40:51;0.00;;;0.00;;
26038;SDS011;13815;52.374;4.882;2023-09-12T08:43:17;0.00;;;0.00;;
26038;SDS011;13815;52.374;4.882;2023-09-12T08:45:43;0.00;;;0.00;;
26038;SDS011;13815;52.374;4.882;2023-09-12T08:48:11;0.00;;;0.00;;
26038;SDS011;13815;52.374;4.882;2023-09-12T08:50:37;0.00;;;0.00;;
26038;SDS011;13815;52.374;4.882;2023-09-12T08:53:03;0.00;;;0.00;;
26038;SDS011;13815;52.374;4.882;2023-09-12T08:55:28;0.00;;;0.00;;
26038;SDS011;13815;52.374;4.882;2023-09-12T08:57:56;0.00;;;0.00;;
26038;SDS011;13815;52.374;4.882;2023-09-12T09:00:22;0.00;;;0.00;;
26038;SDS011;13815;52.374;4.882;2023-09-12T09:02:48;0.00;;;0.00;;
26038;SDS011;13815;52.374;4.882;2023-09-12T09:05:14;0.00;;;0.00;;
26038;SDS011;13815;52.374;4.882;2023-09-12T09:07:40;0.00;;;0.00;;
26038;SDS011;13815;52.374;4.882;2023-09-12T09:10:07;0.00;;;0.00;;
26038;SDS011;13815;52.374;4.882;2023-09-12T09:12:35;0.00;;;0.00;;
26038;SDS011;13815;52.374;4.882;2023-09-12T09:17:59;0.00;;;0.00;;
26038;SDS011;13815;52.374;4.882;2023-09-12T09:20:29;0.00;;;0.00;;
26038;SDS011;13815;52.374;4.882;2023-09-12T09:22:56;0.00;;;0.00;;
26038;SDS011;13815;52.374;4.882;2023-09-12T09:25:23;0.00;;;0.00;;
26038;SDS011;13815;52.374;4.882;2023-09-12T09:27:48;0.00;;;0.00;;
26038;SDS011;13815;52.374;4.882;2023-09-12T09:30:13;0.00;;;0.00;;
26038;SDS011;13815;52.374;4.882;2023-09-12T09:32:39;0.00;;;0.00;;
26038;SDS011;13815;52.374;4.882;2023-09-12T09:35:05;0.00;;;0.00;;
26038;SDS011;13815;52.374;4.882;2023-09-12T09:37:31;0.00;;;0.00;;
26038;SDS011;13815;52.374;4.882;2023-09-12T09:39:57;0.00;;;0.00;;
26038;SDS011;13815;52.374;4.882;2023-09-12T09:42:23;0.00;;;0.00;;
26038;SDS011;13815;52.374;4.882;2023-09-12T09:44:48;0.00;;;0.00;;
26038;SDS011;13815;52.374;4.882;2023-09-12T09:47:14;0.00;;;0.00;;
26038;SDS011;13815;52.374;4.882;2023-09-12T09:49:40;0.00;;;0.00;;
26038;SDS011;13815;52.374;4.882;2023-09-12T09:52:05;0.00;;;0.00;;
26038;SDS011;13815;52.374;4.882;2023-09-12T09:54:31;0.00;;;0.00;;
26038;SDS011;13815;52.374;4.882;2023-09-12T09:56:57;0.00;;;0.00;;
26038;SDS011;13815;52.374;4.882;2023-09-12T09:59:26;0.00;;;0.00;;
26038;SDS011;13815;52.374;4.882;2023-09-12T10:01:55;0.00;;;0.00;;
26038;SDS011;13815;52.374;4.882;2023-09-12T10:04:26;0.00;;;0.00;;
26038;SDS011;13815;52.374;4.882;2023-09-12T10:06:54;0.00;;;0.00;;
26038;SDS011;13815;52.374;4.882;2023-09-12T10:09:21;0.00;;;0.00;;
26038;SDS011;13815;52.374;4.882;2023-09-12T10:11:48;0.00;;;0.00;;
26038;SDS011;13815;52.374;4.882;2023-09-12T10:14:15;0.00;;;0.00;;
26038;SDS011;13815;52.374;4.882;2023-09-12T10:16:45;0.00;;;0.00;;
26038;SDS011;13815;52.374;4.882;2023-09-12T10:19:30;0.00;;;0.00;;
26038;SDS011;13815;52.374;4.882;2023-09-12T10:22:00;0.00;;;0.00;;
26038;SDS011;13815;52.374;4.882;2023-09-12T10:24:30;0.00;;;0.00;;
26038;SDS011;13815;52.374;4.882;2023-09-12T10:26:57;0.00;;;0.00;;
26038;SDS011;13815;52.374;4.882;2023-09-12T10:29:22;0.00;;;0.00;;
26038;SDS011;13815;52.374;4.882;2023-09-12T10:31:48;0.00;;;0.00;;
26038;SDS011;13815;52.374;4.882;2023-09-12T10:34:14;0.00;;;0.00;;
26038;SDS011;13815;52.374;4.882;2023-09-12T10:36:40;0.00;;;0.00;;
26038;SDS011;13815;52.374;4.882;2023-09-12T10:39:06;0.00;;;0.00;;
26038;SDS011;13815;52.374;4.882;2023-09-12T10:41:37;0.00;;;0.00;;
26038;SDS011;13815;52.374;4.882;2023-09-12T10:44:03;0.00;;;0.00;;
26038;SDS011;13815;52.374;4.882;2023-09-12T10:46:38;0.00;;;0.00;;
26038;SDS011;13815;52.374;4.882;2023-09-12T10:49:08;0.00;;;0.00;;
26038;SDS011;13815;52.374;4.882;2023-09-12T10:51:37;0.00;;;0.00;;
26038;SDS011;13815;52.374;4.882;2023-09-12T10:54:06;0.00;;;0.00;;
26038;SDS011;13815;52.374;4.882;2023-09-12T10:56:35;0.00;;;0.00;;
26038;SDS011;13815;52.374;4.882;2023-09-12T11:01:30;0.00;;;0.00;;
26038;SDS011;13815;52.374;4.882;2023-09-12T11:03:56;0.00;;;0.00;;
26038;SDS011;13815;52.374;4.882;2023-09-12T11:06:30;0.00;;;0.00;;
26038;SDS011;13815;52.374;4.882;2023-09-12T11:11:46;0.00;;;0.00;;
26038;SDS011;13815;52.374;4.882;2023-09-12T11:14:12;0.00;;;0.00;;
26038;SDS011;13815;52.374;4.882;2023-09-12T11:16:38;0.00;;;0.00;;
26038;SDS011;13815;52.374;4.882;2023-09-12T11:22:26;0.00;;;0.00;;
26038;SDS011;13815;52.374;4.882;2023-09-12T11:24:54;0.00;;;0.00;;
26038;SDS011;13815;52.374;4.882;2023-09-12T11:27:21;0.00;;;0.00;;
26038;SDS011;13815;52.374;4.882;2023-09-12T11:29:48;0.00;;;0.00;;
26038;SDS011;13815;52.374;4.882;2023-09-12T11:32:24;0.00;;;0.00;;
26038;SDS011;13815;52.374;4.882;2023-09-12T11:34:52;0.00;;;0.00;;
26038;SDS011;13815;52.374;4.882;2023-09-12T11:37:26;0.00;;;0.00;;
26038;SDS011;13815;52.374;4.882;2023-09-12T11:39:53;0.00;;;0.00;;
26038;SDS011;13815;52.374;4.882;2023-09-12T11:42:19;0.00;;;0.00;;
26038;SDS011;13815;52.374;4.882;2023-09-12T11:44:48;0.00;;;0.00;;
26038;SDS011;13815;52.374;4.882;2023-09-12T11:47:14;0.00;;;0.00;;
26038;SDS011;13815;52.374;4.882;2023-09-12T11:49:40;0.00;;;0.00;;
26038;SDS011;13815;52.374;4.882;2023-09-12T11:52:13;0.00;;;0.00;;
26038;SDS011;13815;52.374;4.882;2023-09-12T11:54:43;0.30;;;0.30;;
26038;SDS011;13815;52.374;4.882;2023-09-12T11:57:10;0.90;;;0.90;;
26038;SDS011;13815;52.374;4.882;2023-09-12T11:59:38;1.40;;;1.40;;
26038;SDS011;13815;52.374;4.882;2023-09-12T12:02:07;2.20;;;2.20;;
26038;SDS011;13815;52.374;4.882;2023-09-12T12:04:33;1.77;;;1.77;;
26038;SDS011;13815;52.374;4.882;2023-09-12T12:06:59;0.80;;;0.80;;
26038;SDS011;13815;52.374;4.882;2023-09-12T12:09:26;0.40;;;0.40;;
26038;SDS011;13815;52.374;4.882;2023-09-12T12:11:51;1.23;;;1.23;;
26038;SDS011;13815;52.374;4.882;2023-09-12T12:14:17;1.08;;;1.08;;
26038;SDS011;13815;52.374;4.882;2023-09-12T12:16:44;0.90;;;0.90;;
26038;SDS011;13815;52.374;4.882;2023-09-12T12:19:10;1.25;;;1.25;;
26038;SDS011;13815;52.374;4.882;2023-09-12T12:21:39;1.10;;;1.10;;
26038;SDS011;13815;52.374;4.882;2023-09-12T12:24:12;0.70;;;0.70;;
26038;SDS011;13815;52.374;4.882;2023-09-12T12:26:42;0.50;;;0.50;;
26038;SDS011;13815;52.374;4.882;2023-09-12T12:29:08;0.50;;;0.50;;
26038;SDS011;13815;52.374;4.882;2023-09-12T12:31:34;0.40;;;0.40;;
26038;SDS011;13815;52.374;4.882;2023-09-12T12:33:59;0.50;;;0.50;;
26038;SDS011;13815;52.374;4.882;2023-09-12T12:36:25;1.83;;;1.83;;
26038;SDS011;13815;52.374;4.882;2023-09-12T12:38:52;4.10;;;4.00;;
26038;SDS011;13815;52.374;4.882;2023-09-12T12:41:22;3.50;;;3.40;;
26038;SDS011;13815;52.374;4.882;2023-09-12T12:43:52;3.30;;;3.20;;
26038;SDS011;13815;52.374;4.882;2023-09-12T12:46:19;2.10;;;2.10;;
26038;SDS011;13815;52.374;4.882;2023-09-12T12:48:46;1.70;;;1.70;;
26038;SDS011;13815;52.374;4.882;2023-09-12T12:51:17;2.10;;;2.10;;
26038;SDS011;13815;52.374;4.882;2023-09-12T12:53:48;1.70;;;1.70;;
26038;SDS011;13815;52.374;4.882;2023-09-12T12:56:19;0.85;;;0.85;;
26038;SDS011;13815;52.374;4.882;2023-09-12T12:58:56;1.10;;;1.10;;
26038;SDS011;13815;52.374;4.882;2023-09-12T13:01:23;1.20;;;1.20;;
26038;SDS011;13815;52.374;4.882;2023-09-12T13:03:48;1.20;;;1.20;;
26038;SDS011;13815;52.374;4.882;2023-09-12T13:06:18;0.60;;;0.60;;
26038;SDS011;13815;52.374;4.882;2023-09-12T13:08:44;0.70;;;0.70;;
26038;SDS011;13815;52.374;4.882;2023-09-12T13:11:11;0.73;;;0.73;;
26038;SDS011;13815;52.374;4.882;2023-09-12T13:13:37;0.70;;;0.70;;
26038;SDS011;13815;52.374;4.882;2023-09-12T13:16:04;0.60;;;0.60;;
26038;SDS011;13815;52.374;4.882;2023-09-12T13:18:31;0.50;;;0.50;;
26038;SDS011;13815;52.374;4.882;2023-09-12T13:20:59;0.40;;;0.40;;
26038;SDS011;13815;52.374;4.882;2023-09-12T13:23:25;0.50;;;0.50;;
26038;SDS011;13815;52.374;4.882;2023-09-12T13:25:51;0.60;;;0.60;;
26038;SDS011;13815;52.374;4.882;2023-09-12T13:28:16;0.40;;;0.40;;
26038;SDS011;13815;52.374;4.882;2023-09-12T13:30:42;0.50;;;0.50;;
26038;SDS011;13815;52.374;4.882;2023-09-12T13:33:08;0.52;;;0.52;;
26038;SDS011;13815;52.374;4.882;2023-09-12T13:35:33;0.43;;;0.43;;
26038;SDS011;13815;52.374;4.882;2023-09-12T13:37:58;0.40;;;0.40;;
26038;SDS011;13815;52.374;4.882;2023-09-12T13:40:24;0.50;;;0.50;;
26038;SDS011;13815;52.374;4.882;2023-09-12T13:42:49;0.30;;;0.30;;
26038;SDS011;13815;52.374;4.882;2023-09-12T13:45:15;0.10;;;0.10;;
26038;SDS011;13815;52.374;4.882;2023-09-12T13:47:40;0.00;;;0.00;;
26038;SDS011;13815;52.374;4.882;2023-09-12T13:50:07;0.00;;;0.00;;
26038;SDS011;13815;52.374;4.882;2023-09-12T13:52:33;0.00;;;0.00;;
26038;SDS011;13815;52.374;4.882;2023-09-12T13:54:58;0.00;;;0.00;;
26038;SDS011;13815;52.374;4.882;2023-09-12T13:57:28;0.00;;;0.00;;
26038;SDS011;13815;52.374;4.882;2023-09-12T13:59:54;0.00;;;0.00;;
26038;SDS011;13815;52.374;4.882;2023-09-12T14:02:19;0.00;;;0.00;;
26038;SDS011;13815;52.374;4.882;2023-09-12T14:04:45;0.00;;;0.00;;
26038;SDS011;13815;52.374;4.882;2023-09-12T14:07:10;0.00;;;0.00;;
26038;SDS011;13815;52.374;4.882;2023-09-12T14:09:36;0.00;;;0.00;;
26038;SDS011;13815;52.374;4.882;2023-09-12T14:12:01;0.00;;;0.00;;
26038;SDS011;13815;52.374;4.882;2023-09-12T14:14:28;0.00;;;0.00;;
26038;SDS011;13815;52.374;4.882;2023-09-12T14:16:53;0.00;;;0.00;;
26038;SDS011;13815;52.374;4.882;2023-09-12T14:19:19;0.00;;;0.00;;
26038;SDS011;13815;52.374;4.882;2023-09-12T14:21:44;0.00;;;0.00;;
26038;SDS011;13815;52.374;4.882;2023-09-12T14:24:10;0.00;;;0.00;;
26038;SDS011;13815;52.374;4.882;2023-09-12T14:26:35;0.00;;;0.00;;
26038;SDS011;13815;52.374;4.882;2023-09-12T14:29:01;0.00;;;0.00;;
26038;SDS011;13815;52.374;4.882;2023-09-12T14:31:26;0.00;;;0.00;;
26038;SDS011;13815;52.374;4.882;2023-09-12T14:33:52;0.00;;;0.00;;
26038;SDS011;13815;52.374;4.882;2023-09-12T14:36:17;0.00;;;0.00;;
26038;SDS011;13815;52.374;4.882;2023-09-12T14:38:43;0.00;;;0.00;;
26038;SDS011;13815;52.374;4.882;2023-09-12T14:41:11;0.00;;;0.00;;
26038;SDS011;13815;52.374;4.882;2023-09-12T14:43:37;0.00;;;0.00;;
26038;SDS011;13815;52.374;4.882;2023-09-12T14:46:03;0.00;;;0.00;;
26038;SDS011;13815;52.374;4.882;2023-09-12T14:48:30;0.00;;;0.00;;
26038;SDS011;13815;52.374;4.882;2023-09-12T14:50:58;0.00;;;0.00;;
26038;SDS011;13815;52.374;4.882;2023-09-12T14:53:26;0.00;;;0.00;;
26038;SDS011;13815;52.374;4.882;2023-09-12T14:55:52;0.00;;;0.00;;
26038;SDS011;13815;52.374;4.882;2023-09-12T14:58:18;0.00;;;0.00;;
26038;SDS011;13815;52.374;4.882;2023-09-12T15:00:43;0.00;;;0.00;;
26038;SDS011;13815;52.374;4.882;2023-09-12T15:03:09;0.00;;;0.00;;
26038;SDS011;13815;52.374;4.882;2023-09-12T15:05:34;0.00;;;0.00;;